Terminal Aerodrome Forecast
Issued by NWS Wilmington, OH

Home | Current Version | Previous Version | Text Only | Print | Product List | Glossary On
Versions: 1 2 3 4 5 6 7 8 9 10 11 12 13 14 15 16
000
FTUS41 KILN 010100 AAA
TAFILN
TAF AMD
KILN 010118Z 0101/0124 33012G20KT P6SM -SHRA BKN009 OVC015
     FM010200 33015G25KT 5SM -RASN BKN009 OVC015
     FM010300 33018G28KT 4SM -SHSN OVC012
     FM010700 34018G27KT P6SM VCSH OVC012
     FM011000 34016G26KT P6SM OVC015
     FM011700 35016G25KT P6SM OVC022
     FM012100 35015G25KT P6SM BKN035
     FM012300 34010KT P6SM SCT035=

USA.gov is the U.S. government's official web portal to all federal, state and local government web resources and services.